createdAt,value
2023-04-06T00:00:37.639Z,100.00
2023-04-06T00:03:06.183Z,100.00
2023-04-06T00:05:34.821Z,100.00
2023-04-06T00:08:03.005Z,100.00
2023-04-06T00:10:31.681Z,100.00
2023-04-06T00:13:01.872Z,100.00
2023-04-06T00:15:30.054Z,100.00
2023-04-06T00:17:58.479Z,100.00
2023-04-06T00:20:26.813Z,100.00
2023-04-06T00:22:55.256Z,100.00
2023-04-06T00:25:23.421Z,100.00
2023-04-06T00:27:51.611Z,100.00
2023-04-06T00:30:21.670Z,100.00
2023-04-06T00:32:50.686Z,100.00
2023-04-06T00:35:18.764Z,100.00
2023-04-06T00:37:49.128Z,100.00
2023-04-06T00:40:17.830Z,100.00
2023-04-06T00:42:46.348Z,100.00
2023-04-06T00:45:14.535Z,100.00
2023-04-06T00:47:44.467Z,100.00
2023-04-06T00:50:12.780Z,100.00
2023-04-06T00:52:41.343Z,100.00
2023-04-06T00:55:10.611Z,100.00
2023-04-06T00:57:38.718Z,100.00
2023-04-06T01:00:08.394Z,100.00
2023-04-06T01:02:36.797Z,100.00
2023-04-06T01:05:07.561Z,100.00
2023-04-06T01:07:35.763Z,100.00
2023-04-06T01:10:04.058Z,100.00
2023-04-06T01:12:32.157Z,100.00
2023-04-06T01:15:00.906Z,100.00
2023-04-06T01:17:29.766Z,100.00
2023-04-06T01:19:58.013Z,100.00
2023-04-06T01:22:28.214Z,100.00
2023-04-06T01:24:56.596Z,100.00
2023-04-06T01:27:26.663Z,100.00
2023-04-06T01:29:54.971Z,100.00
2023-04-06T01:32:23.563Z,100.00
2023-04-06T01:34:51.895Z,100.00
2023-04-06T01:37:20.284Z,100.00
2023-04-06T01:39:49.715Z,100.00
2023-04-06T01:42:17.797Z,100.00
2023-04-06T01:44:46.137Z,100.00
2023-04-06T01:47:14.444Z,100.00
2023-04-06T01:49:42.867Z,100.00
2023-04-06T01:52:11.080Z,100.00
2023-04-06T01:54:39.147Z,100.00
2023-04-06T01:57:09.565Z,100.00
2023-04-06T01:59:37.737Z,100.00
2023-04-06T02:02:06.167Z,100.00
2023-04-06T02:04:34.266Z,100.00
2023-04-06T02:07:02.583Z,100.00
2023-04-06T02:09:30.660Z,100.00
2023-04-06T02:11:59.303Z,100.00
2023-04-06T02:14:30.041Z,100.00
2023-04-06T02:16:58.138Z,100.00
2023-04-06T02:19:26.495Z,100.00
2023-04-06T02:21:54.887Z,100.00
2023-04-06T02:24:23.150Z,100.00
2023-04-06T02:26:51.498Z,100.00
2023-04-06T02:29:19.634Z,100.00
2023-04-06T02:31:49.295Z,100.00
2023-04-06T02:34:18.869Z,100.00
2023-04-06T02:36:47.948Z,100.00
2023-04-06T02:39:16.810Z,100.00
2023-04-06T02:41:45.838Z,100.00
2023-04-06T02:44:14.372Z,100.00
2023-04-06T02:46:42.596Z,100.00
2023-04-06T02:49:12.118Z,100.00
2023-04-06T02:51:40.595Z,100.00
2023-04-06T02:54:08.763Z,100.00
2023-04-06T02:56:37.394Z,100.00
2023-04-06T02:59:05.521Z,100.00
2023-04-06T03:01:33.576Z,100.00
2023-04-06T03:04:02.010Z,100.00
2023-04-06T03:06:31.520Z,100.00
2023-04-06T03:08:59.910Z,100.00
2023-04-06T03:11:28.095Z,100.00
2023-04-06T03:13:56.308Z,100.00
2023-04-06T03:16:24.531Z,100.00
2023-04-06T03:18:52.765Z,100.00
2023-04-06T03:21:21.843Z,100.00
2023-04-06T03:23:52.350Z,100.00
2023-04-06T03:26:20.737Z,100.00
2023-04-06T03:28:48.917Z,100.00
2023-04-06T03:31:17.339Z,100.00
2023-04-06T03:33:46.810Z,100.00
2023-04-06T03:36:14.895Z,100.00
2023-04-06T03:38:42.948Z,100.00
2023-04-06T03:41:12.520Z,100.00
2023-04-06T03:43:40.781Z,100.00
2023-04-06T03:46:08.853Z,100.00
2023-04-06T03:48:37.554Z,100.00
2023-04-06T03:51:08.233Z,100.00
2023-04-06T03:53:38.075Z,100.00
2023-04-06T03:56:07.583Z,100.00
2023-04-06T03:58:37.674Z,100.00
2023-04-06T04:01:05.933Z,100.00
2023-04-06T04:03:36.035Z,100.00
2023-04-06T04:06:04.349Z,100.00
2023-04-06T04:08:32.437Z,100.00
2023-04-06T04:11:00.738Z,100.00
2023-04-06T04:13:28.983Z,100.00
2023-04-06T04:15:59.846Z,100.00
2023-04-06T04:18:28.659Z,100.00
2023-04-06T04:20:57.209Z,100.00
2023-04-06T04:23:25.319Z,100.00
2023-04-06T04:25:53.651Z,100.00
2023-04-06T04:28:21.957Z,100.00
2023-04-06T04:30:50.115Z,100.00
2023-04-06T04:33:20.083Z,100.00
2023-04-06T04:35:48.455Z,100.00
2023-04-06T04:38:17.120Z,100.00
2023-04-06T04:40:45.514Z,100.00
2023-04-06T04:43:13.938Z,100.00
2023-04-06T04:45:42.258Z,100.00
2023-04-06T04:48:13.130Z,100.00
2023-04-06T04:50:42.704Z,100.00
2023-04-06T04:53:11.227Z,100.00
2023-04-06T04:55:39.789Z,100.00
2023-04-06T04:58:07.881Z,100.00
2023-04-06T05:00:35.955Z,100.00
2023-04-06T05:03:05.620Z,100.00
2023-04-06T05:05:35.480Z,100.00
2023-04-06T05:08:05.800Z,100.00
2023-04-06T05:10:35.314Z,100.00
2023-04-06T05:13:03.743Z,100.00
2023-04-06T05:15:32.214Z,100.00
2023-04-06T05:18:00.502Z,100.00
2023-04-06T05:20:29.197Z,100.00
2023-04-06T05:22:58.073Z,100.00
2023-04-06T05:25:28.575Z,100.00
2023-04-06T05:27:57.106Z,100.00
2023-04-06T05:30:25.871Z,100.00
2023-04-06T05:32:54.078Z,100.00
2023-04-06T05:35:22.247Z,100.00
2023-04-06T05:37:50.627Z,100.00
2023-04-06T05:40:18.984Z,100.00
2023-04-06T05:42:48.587Z,100.00
2023-04-06T05:45:18.015Z,100.00
2023-04-06T05:47:46.692Z,100.00
2023-04-06T05:50:16.153Z,100.00
2023-04-06T05:52:47.470Z,100.00
2023-04-06T05:55:15.750Z,100.00
2023-04-06T05:57:43.725Z,100.00
2023-04-06T06:00:18.565Z,100.00
2023-04-06T06:02:47.501Z,100.00
2023-04-06T06:05:15.926Z,100.00
2023-04-06T06:07:44.191Z,100.00
2023-04-06T06:10:13.237Z,100.00
2023-04-06T06:12:41.570Z,100.00
2023-04-06T06:15:10.494Z,100.00
2023-04-06T06:17:41.702Z,100.00
2023-04-06T06:20:10.884Z,100.00
2023-04-06T06:22:38.991Z,100.00
2023-04-06T06:25:08.800Z,100.00
2023-04-06T06:27:36.917Z,100.00
2023-04-06T06:30:06.087Z,100.00
2023-04-06T06:32:34.913Z,100.00
2023-04-06T06:35:04.658Z,100.00
2023-04-06T06:37:34.428Z,100.00
2023-04-06T06:40:02.620Z,100.00
2023-04-06T06:42:30.629Z,100.00
2023-04-06T06:44:59.863Z,100.00
2023-04-06T06:47:28.096Z,100.00
2023-04-06T06:49:56.613Z,100.00
2023-04-06T06:52:26.620Z,100.00
2023-04-06T06:54:57.554Z,100.00
2023-04-06T06:57:26.182Z,100.00
2023-04-06T06:59:54.412Z,100.00
2023-04-06T07:02:22.722Z,100.00
2023-04-06T07:04:51.246Z,100.00
2023-04-06T07:07:19.348Z,100.00
2023-04-06T07:09:49.350Z,100.00
2023-04-06T07:12:17.772Z,100.00
2023-04-06T07:14:46.221Z,100.00
2023-04-06T07:17:14.437Z,100.00
2023-04-06T07:19:43.368Z,100.00
2023-04-06T07:22:11.458Z,100.00
2023-04-06T07:24:39.584Z,100.00
2023-04-06T07:27:09.357Z,95.30
2023-04-06T07:29:37.768Z,94.09
2023-04-06T07:32:07.342Z,93.28
2023-04-06T07:34:35.682Z,90.88
2023-04-06T07:37:04.497Z,89.66
2023-04-06T07:39:32.920Z,87.95
2023-04-06T07:42:01.015Z,88.48
2023-04-06T07:44:30.728Z,87.79
2023-04-06T07:46:58.843Z,86.04
2023-04-06T07:49:27.568Z,84.46
2023-04-06T07:51:56.314Z,83.85
2023-04-06T07:54:24.453Z,83.41
2023-04-06T07:56:52.564Z,82.76
2023-04-06T07:59:20.857Z,81.80
2023-04-06T08:01:50.552Z,81.20
2023-04-06T08:04:19.099Z,79.22
2023-04-06T08:06:47.338Z,79.43
2023-04-06T08:09:15.678Z,79.15
2023-04-06T08:11:45.470Z,79.14
2023-04-06T08:14:13.884Z,78.83
2023-04-06T08:16:42.116Z,78.14
2023-04-06T08:19:12.416Z,79.43
2023-04-06T08:21:42.142Z,78.85
2023-04-06T08:24:11.369Z,76.81
2023-04-06T08:26:39.477Z,78.35
2023-04-06T08:29:09.826Z,78.95
2023-04-06T08:31:38.982Z,78.92
2023-04-06T08:34:09.414Z,77.71
2023-04-06T08:36:40.619Z,75.44
2023-04-06T08:39:10.865Z,73.83
2023-04-06T08:41:39.183Z,76.95
2023-04-06T08:44:07.733Z,79.53
2023-04-06T08:46:36.407Z,80.15
2023-04-06T08:49:07.944Z,80.22
2023-04-06T08:51:39.326Z,81.31
2023-04-06T08:54:09.102Z,78.59
2023-04-06T08:56:41.392Z,77.29
2023-04-06T08:59:11.889Z,77.73
2023-04-06T09:01:43.481Z,73.43
2023-04-06T09:04:13.930Z,73.30
2023-04-06T09:06:42.773Z,71.76
2023-04-06T09:09:12.818Z,71.08
2023-04-06T09:11:47.078Z,71.11
2023-04-06T09:14:17.994Z,71.34
2023-04-06T09:16:48.637Z,70.78
2023-04-06T09:19:17.126Z,70.93
2023-04-06T09:21:45.646Z,69.25
2023-04-06T09:24:15.733Z,68.48
2023-04-06T09:26:49.204Z,68.64
2023-04-06T09:29:30.921Z,68.44
2023-04-06T09:32:06.214Z,69.90
2023-04-06T09:34:35.047Z,69.10
2023-04-06T09:37:04.038Z,68.60
2023-04-06T09:39:34.242Z,66.08
2023-04-06T09:42:03.919Z,66.16
2023-04-06T09:44:35.334Z,65.86
2023-04-06T09:47:06.433Z,65.02
2023-04-06T09:49:36.560Z,65.03
2023-04-06T09:52:06.647Z,64.33
2023-04-06T09:54:38.968Z,63.29
2023-04-06T09:57:25.735Z,62.56
2023-04-06T10:00:09.324Z,62.28
2023-04-06T10:02:46.342Z,61.56
2023-04-06T10:05:22.288Z,58.37
2023-04-06T10:08:00.424Z,56.62
2023-04-06T10:10:33.974Z,56.40
2023-04-06T10:13:02.730Z,58.72
2023-04-06T10:15:32.097Z,58.93
2023-04-06T10:18:03.540Z,57.94
2023-04-06T10:20:39.641Z,56.63
2023-04-06T10:23:15.354Z,57.78
2023-04-06T10:25:57.573Z,56.27
2023-04-06T10:28:26.417Z,57.30
2023-04-06T10:31:00.040Z,55.08
2023-04-06T10:33:28.548Z,52.94
2023-04-06T10:35:57.333Z,52.74
2023-04-06T10:38:39.649Z,54.12
2023-04-06T10:41:13.191Z,54.62
2023-04-06T10:43:48.786Z,53.01
2023-04-06T10:46:27.901Z,52.89
2023-04-06T10:48:56.318Z,50.93
2023-04-06T10:51:28.914Z,54.10
2023-04-06T10:53:58.167Z,52.35
2023-04-06T10:56:29.176Z,50.68
2023-04-06T10:58:58.143Z,50.77
2023-04-06T11:01:28.695Z,50.20
2023-04-06T11:04:00.654Z,49.62
2023-04-06T11:06:32.254Z,51.18
2023-04-06T11:09:01.419Z,50.91
2023-04-06T11:11:31.683Z,49.44
2023-04-06T11:14:01.401Z,49.69
2023-04-06T11:16:32.209Z,49.38
2023-04-06T11:19:05.229Z,48.59
2023-04-06T11:21:40.854Z,47.81
2023-04-06T11:24:11.248Z,48.33
2023-04-06T11:26:42.587Z,48.18
2023-04-06T11:29:11.630Z,48.63
2023-04-06T11:31:44.197Z,47.93
2023-04-06T11:34:16.296Z,47.61
2023-04-06T11:36:48.947Z,46.15
2023-04-06T11:39:22.056Z,45.32
2023-04-06T11:41:53.111Z,43.77
2023-04-06T11:44:32.075Z,43.64
2023-04-06T11:47:00.938Z,42.27
2023-04-06T11:49:30.303Z,41.46
2023-04-06T11:51:58.591Z,41.63
2023-04-06T11:54:34.325Z,41.52
2023-04-06T11:57:06.924Z,41.90
2023-04-06T11:59:35.638Z,40.70
2023-04-06T12:02:04.664Z,39.57
2023-04-06T12:04:32.865Z,39.53
2023-04-06T12:07:02.653Z,39.90
2023-04-06T12:09:32.153Z,39.98
2023-04-06T12:12:00.354Z,40.40
2023-04-06T12:14:31.907Z,42.30
2023-04-06T12:17:00.427Z,43.08
2023-04-06T12:19:31.150Z,40.96
2023-04-06T12:22:06.487Z,41.73
2023-04-06T12:24:42.155Z,41.50
2023-04-06T12:27:12.928Z,40.72
2023-04-06T12:29:45.865Z,40.21
2023-04-06T12:32:14.457Z,41.49
2023-04-06T12:34:42.764Z,42.59
2023-04-06T12:37:14.565Z,41.36
2023-04-06T12:39:42.673Z,41.49
2023-04-06T12:42:12.314Z,41.13
2023-04-06T12:44:46.215Z,40.72
2023-04-06T12:47:15.118Z,41.00
2023-04-06T12:49:44.115Z,41.33
2023-04-06T12:52:14.148Z,41.95
2023-04-06T12:54:42.729Z,41.72
2023-04-06T12:57:11.760Z,41.90
2023-04-06T12:59:41.614Z,41.85
2023-04-06T13:02:13.343Z,40.69
2023-04-06T13:04:43.342Z,41.32
2023-04-06T13:07:11.923Z,40.76
2023-04-06T13:09:40.588Z,41.97
2023-04-06T13:12:09.082Z,42.53
2023-04-06T13:14:37.416Z,42.75
2023-04-06T13:17:05.986Z,42.56
2023-04-06T13:19:35.953Z,42.20
2023-04-06T13:22:04.179Z,41.60
2023-04-06T13:24:32.429Z,41.92
2023-04-06T13:27:01.928Z,42.91
2023-04-06T13:29:30.099Z,42.36
2023-04-06T13:31:58.255Z,42.87
2023-04-06T13:34:26.615Z,41.75
2023-04-06T13:36:56.409Z,41.42
2023-04-06T13:39:24.666Z,40.38
2023-04-06T13:41:53.019Z,40.01
2023-04-06T13:44:21.098Z,39.17
2023-04-06T13:46:49.471Z,39.62
2023-04-06T13:49:18.998Z,40.18
2023-04-06T13:51:51.858Z,40.99
2023-04-06T13:54:22.549Z,40.51
2023-04-06T13:56:51.196Z,41.98
2023-04-06T13:59:19.644Z,41.91
2023-04-06T14:01:47.899Z,40.74
2023-04-06T14:04:16.284Z,40.29
2023-04-06T14:06:46.729Z,39.87
2023-04-06T14:09:15.119Z,39.52
2023-04-06T14:11:45.001Z,39.71
2023-04-06T14:14:13.754Z,39.71
2023-04-06T14:16:45.201Z,40.12
2023-04-06T14:19:14.029Z,40.45
2023-04-06T14:21:44.876Z,41.27
2023-04-06T14:24:13.712Z,40.60
2023-04-06T14:26:44.041Z,42.01
2023-04-06T14:29:13.910Z,41.28
2023-04-06T14:31:42.417Z,41.35
2023-04-06T14:34:11.053Z,42.64
2023-04-06T14:36:39.468Z,42.69
2023-04-06T14:39:08.471Z,43.92
2023-04-06T14:41:37.321Z,42.49
2023-04-06T14:44:06.038Z,41.79
2023-04-06T14:46:36.212Z,42.17
2023-04-06T14:49:04.772Z,42.52
2023-04-06T14:51:37.066Z,43.01
2023-04-06T14:54:06.204Z,42.56
2023-04-06T14:56:34.205Z,43.85
2023-04-06T14:59:03.210Z,43.35
2023-04-06T15:01:32.587Z,43.19
2023-04-06T15:04:05.134Z,44.67
2023-04-06T15:06:33.378Z,45.48
2023-04-06T15:09:01.709Z,45.21
2023-04-06T15:11:29.945Z,45.32
2023-04-06T15:13:58.368Z,45.24
2023-04-06T15:16:26.811Z,45.30
2023-04-06T15:18:55.038Z,44.42
2023-04-06T15:21:24.980Z,44.57
2023-04-06T15:23:53.218Z,44.81
2023-04-06T15:26:21.964Z,44.42
2023-04-06T15:28:50.880Z,44.39
2023-04-06T15:31:35.875Z,44.25
2023-04-06T15:34:06.881Z,44.44
2023-04-06T15:36:36.902Z,45.72
2023-04-06T15:39:09.646Z,46.08
2023-04-06T15:41:38.573Z,44.22
2023-04-06T15:44:07.283Z,44.72
2023-04-06T15:46:35.479Z,44.04
2023-04-06T15:49:03.909Z,44.20
2023-04-06T15:51:33.668Z,43.08
2023-04-06T15:54:04.040Z,44.26
2023-04-06T15:56:35.196Z,44.39
2023-04-06T15:59:04.469Z,45.26
2023-04-06T16:01:33.185Z,44.77
2023-04-06T16:04:01.737Z,44.95
2023-04-06T16:06:30.280Z,45.16
2023-04-06T16:08:58.862Z,45.23
2023-04-06T16:11:28.711Z,46.01
2023-04-06T16:13:57.571Z,45.84
2023-04-06T16:16:26.282Z,44.72
2023-04-06T16:18:55.048Z,45.35
2023-04-06T16:21:23.258Z,45.09
2023-04-06T16:23:52.042Z,44.54
2023-04-06T16:26:21.933Z,44.82
2023-04-06T16:28:51.827Z,45.12
2023-04-06T16:31:22.181Z,45.41
2023-04-06T16:33:51.073Z,44.70
2023-04-06T16:36:24.276Z,44.84
2023-04-06T16:38:53.216Z,45.16
2023-04-06T16:41:21.671Z,45.04
2023-04-06T16:43:54.054Z,44.76
2023-04-06T16:46:22.308Z,45.41
2023-04-06T16:48:50.882Z,47.32
2023-04-06T16:51:19.347Z,47.93
2023-04-06T16:53:48.392Z,46.92
2023-04-06T16:56:16.786Z,46.82
2023-04-06T16:58:45.370Z,47.02
2023-04-06T17:01:26.900Z,47.14
2023-04-06T17:03:56.232Z,48.28
2023-04-06T17:06:25.070Z,48.58
2023-04-06T17:08:54.182Z,48.78
2023-04-06T17:11:28.603Z,50.15
2023-04-06T17:14:04.721Z,50.09
2023-04-06T17:16:34.555Z,50.82
2023-04-06T17:19:05.257Z,50.65
2023-04-06T17:21:33.433Z,50.29
2023-04-06T17:24:01.746Z,50.48
2023-04-06T17:26:31.378Z,50.19
2023-04-06T17:28:59.558Z,50.76
2023-04-06T17:31:28.268Z,51.37
2023-04-06T17:33:58.874Z,51.88
2023-04-06T17:36:29.017Z,52.76
2023-04-06T17:38:59.528Z,52.74
2023-04-06T17:41:28.808Z,52.64
2023-04-06T17:43:58.872Z,52.93
2023-04-06T17:46:27.356Z,53.39
2023-04-06T17:48:55.961Z,55.10
2023-04-06T17:51:27.341Z,55.53
2023-04-06T17:53:55.497Z,55.84
2023-04-06T17:56:24.446Z,56.18
2023-04-06T17:58:56.595Z,54.87
2023-04-06T18:01:26.363Z,54.12
2023-04-06T18:03:55.009Z,55.31
2023-04-06T18:06:25.750Z,55.24
2023-04-06T18:08:56.038Z,56.41
2023-04-06T18:11:25.928Z,58.57
2023-04-06T18:13:54.823Z,60.20
2023-04-06T18:16:23.736Z,59.42
2023-04-06T18:18:52.922Z,59.63
2023-04-06T18:21:21.295Z,59.89
2023-04-06T18:23:49.639Z,60.98
2023-04-06T18:26:21.305Z,61.68
2023-04-06T18:28:49.565Z,63.35
2023-04-06T18:31:17.995Z,61.80
2023-04-06T18:33:46.995Z,62.59
2023-04-06T18:36:15.727Z,63.49
2023-04-06T18:38:45.618Z,64.35
2023-04-06T18:41:16.578Z,63.08
2023-04-06T18:43:46.525Z,64.33
2023-04-06T18:46:15.971Z,65.67
2023-04-06T18:48:44.839Z,68.16
2023-04-06T18:51:13.452Z,70.63
2023-04-06T18:53:41.829Z,71.42
2023-04-06T18:56:17.742Z,73.37
2023-04-06T18:58:48.668Z,75.09
2023-04-06T19:01:23.530Z,78.02
2023-04-06T19:03:52.937Z,80.06
2023-04-06T19:06:21.648Z,81.54
2023-04-06T19:08:50.318Z,83.21
2023-04-06T19:11:19.994Z,84.30
2023-04-06T19:13:50.974Z,87.50
2023-04-06T19:16:19.664Z,87.99
2023-04-06T19:18:48.256Z,91.46
2023-04-06T19:21:18.235Z,91.39
2023-04-06T19:23:48.798Z,91.66
2023-04-06T19:26:21.070Z,91.99
2023-04-06T19:28:52.454Z,94.99
2023-04-06T19:31:21.684Z,95.45
2023-04-06T19:33:50.504Z,95.51
2023-04-06T19:36:18.862Z,96.88
2023-04-06T19:38:47.259Z,98.61
2023-04-06T19:41:15.586Z,100.00
2023-04-06T19:43:44.173Z,100.00
2023-04-06T19:46:15.748Z,100.00
2023-04-06T19:48:44.138Z,100.00
2023-04-06T19:51:13.783Z,100.00
2023-04-06T19:53:42.552Z,100.00
2023-04-06T19:56:11.652Z,100.00
2023-04-06T19:58:40.284Z,100.00
2023-04-06T20:01:08.401Z,100.00
2023-04-06T20:03:38.536Z,100.00
2023-04-06T20:06:07.379Z,100.00
2023-04-06T20:08:35.467Z,100.00
2023-04-06T20:11:04.734Z,100.00
2023-04-06T20:13:32.944Z,100.00
2023-04-06T20:16:02.094Z,100.00
2023-04-06T20:18:30.595Z,100.00
2023-04-06T20:21:00.598Z,100.00
2023-04-06T20:23:29.283Z,100.00
2023-04-06T20:25:57.410Z,100.00
2023-04-06T20:28:25.512Z,100.00
2023-04-06T20:30:54.207Z,100.00
2023-04-06T20:33:22.452Z,100.00
2023-04-06T20:36:00.262Z,100.00
2023-04-06T20:41:00.645Z,100.00
2023-04-06T20:43:29.615Z,100.00
2023-04-06T20:45:58.465Z,100.00
2023-04-06T20:48:26.899Z,100.00
2023-04-06T20:50:55.401Z,100.00
2023-04-06T20:53:25.532Z,100.00
2023-04-06T20:55:53.634Z,100.00
2023-04-06T20:58:22.034Z,100.00
2023-04-06T21:00:50.743Z,100.00
2023-04-06T21:03:18.919Z,100.00
2023-04-06T21:05:52.497Z,100.00
2023-04-06T21:08:20.971Z,100.00
2023-04-06T21:10:50.534Z,100.00
2023-04-06T21:13:18.636Z,100.00
2023-04-06T21:15:46.948Z,100.00
2023-04-06T21:18:15.389Z,100.00
2023-04-06T21:20:43.717Z,100.00
2023-04-06T21:23:12.873Z,100.00
2023-04-06T21:25:40.977Z,100.00
2023-04-06T21:28:10.620Z,100.00
2023-04-06T21:30:39.008Z,100.00
2023-04-06T21:33:07.799Z,100.00
2023-04-06T21:35:40.507Z,100.00
2023-04-06T21:38:08.945Z,100.00
2023-04-06T21:40:37.427Z,100.00
2023-04-06T21:43:05.784Z,100.00
2023-04-06T21:45:35.265Z,100.00
2023-04-06T21:48:03.768Z,100.00
2023-04-06T21:50:32.074Z,100.00
2023-04-06T21:53:00.302Z,100.00
2023-04-06T21:55:28.697Z,100.00
2023-04-06T21:57:58.245Z,100.00
2023-04-06T22:00:26.455Z,100.00
2023-04-06T22:02:56.469Z,100.00
2023-04-06T22:05:25.014Z,100.00
2023-04-06T22:07:53.792Z,100.00
2023-04-06T22:10:22.017Z,100.00
2023-04-06T22:12:51.220Z,100.00
2023-04-06T22:15:19.685Z,100.00
2023-04-06T22:17:48.110Z,100.00
2023-04-06T22:20:18.240Z,100.00
2023-04-06T22:22:46.662Z,100.00
2023-04-06T22:25:14.810Z,100.00
2023-04-06T22:27:42.978Z,100.00
2023-04-06T22:30:12.327Z,100.00
2023-04-06T22:32:40.732Z,100.00
2023-04-06T22:35:10.301Z,100.00
2023-04-06T22:37:43.642Z,100.00
2023-04-06T22:40:13.402Z,100.00
2023-04-06T22:42:43.220Z,100.00
2023-04-06T22:45:12.414Z,100.00
2023-04-06T22:47:41.793Z,100.00
2023-04-06T22:50:11.041Z,100.00
2023-04-06T22:52:40.999Z,100.00
2023-04-06T22:55:09.714Z,100.00
2023-04-06T22:57:38.003Z,100.00
2023-04-06T23:00:07.268Z,100.00
2023-04-06T23:02:35.670Z,100.00
2023-04-06T23:05:04.115Z,100.00
2023-04-06T23:07:35.713Z,100.00
2023-04-06T23:10:06.164Z,100.00
2023-04-06T23:12:36.452Z,100.00
2023-04-06T23:15:05.458Z,100.00
2023-04-06T23:17:33.559Z,100.00
2023-04-06T23:20:04.293Z,100.00
2023-04-06T23:22:32.778Z,100.00
2023-04-06T23:25:00.955Z,100.00
2023-04-06T23:27:32.440Z,100.00
2023-04-06T23:30:01.968Z,100.00
2023-04-06T23:32:30.043Z,100.00
2023-04-06T23:34:58.465Z,100.00
2023-04-06T23:37:27.481Z,100.00
2023-04-06T23:39:55.929Z,100.00
2023-04-06T23:42:28.949Z,100.00
2023-04-06T23:44:58.878Z,100.00
2023-04-06T23:47:27.309Z,100.00
2023-04-06T23:49:56.604Z,100.00
2023-04-06T23:52:25.037Z,100.00
2023-04-06T23:54:54.000Z,100.00
2023-04-06T23:57:22.673Z,100.00
2023-04-06T23:59:52.500Z,100.00
